createdAt,value
2018-12-29T00:01:39.914Z,17.90
2018-12-29T00:04:11.854Z,18.53
2018-12-29T00:06:43.672Z,18.83
2018-12-29T00:09:15.535Z,19.23
2018-12-29T00:11:47.351Z,19.23
2018-12-29T00:14:19.202Z,19.50
2018-12-29T00:16:52.172Z,19.00
2018-12-29T00:19:24.045Z,18.60
2018-12-29T00:21:55.912Z,17.97
2018-12-29T00:24:27.770Z,19.17
2018-12-29T00:26:59.682Z,18.60
2018-12-29T00:29:31.517Z,18.30
2018-12-29T00:32:04.555Z,19.50
2018-12-29T00:34:36.432Z,20.10
2018-12-29T00:37:08.274Z,18.63
2018-12-29T00:39:40.172Z,19.43
2018-12-29T00:42:12.023Z,20.13
2018-12-29T00:44:43.890Z,20.50
2018-12-29T00:47:15.717Z,18.63
2018-12-29T00:49:47.622Z,19.03
2018-12-29T00:52:19.535Z,18.60
2018-12-29T00:54:51.427Z,19.43
2018-12-29T00:57:23.239Z,19.37
2018-12-29T00:59:55.144Z,20.60
2018-12-29T01:02:26.981Z,20.60
2018-12-29T01:04:58.872Z,19.77
2018-12-29T01:07:31.897Z,21.13
2018-12-29T01:10:04.021Z,19.90
2018-12-29T01:12:35.915Z,20.80
2018-12-29T01:15:10.048Z,22.07
2018-12-29T01:17:41.256Z,22.00
2018-12-29T01:20:13.060Z,20.00
2018-12-29T01:22:44.960Z,20.97
2018-12-29T01:25:16.757Z,21.13
2018-12-29T01:27:48.555Z,20.23
2018-12-29T01:30:20.423Z,21.17
2018-12-29T01:32:52.256Z,22.23
2018-12-29T01:35:24.111Z,20.00
2018-12-29T01:37:56.012Z,21.37
2018-12-29T01:40:27.936Z,19.87
2018-12-29T01:42:59.804Z,21.20
2018-12-29T01:45:31.688Z,19.80
2018-12-29T01:48:03.644Z,20.43
2018-12-29T01:50:35.542Z,20.80
2018-12-29T01:53:07.349Z,19.80
2018-12-29T01:55:39.210Z,20.53
2018-12-29T01:58:11.023Z,21.00
2018-12-29T02:00:42.848Z,21.13
2018-12-29T02:03:22.388Z,21.30
2018-12-29T02:05:54.260Z,19.37
2018-12-29T02:08:26.102Z,20.83
2018-12-29T02:10:57.951Z,20.20
2018-12-29T02:13:29.833Z,22.57
2018-12-29T02:16:01.660Z,20.47
2018-12-29T02:18:34.702Z,20.70
2018-12-29T02:21:06.599Z,21.73
2018-12-29T02:23:38.477Z,20.00
2018-12-29T02:26:10.374Z,19.17
2018-12-29T02:28:42.182Z,20.57
2018-12-29T02:31:15.550Z,21.23
2018-12-29T02:33:50.171Z,19.80
2018-12-29T02:36:22.050Z,18.83
2018-12-29T02:38:53.964Z,19.90
2018-12-29T02:41:25.757Z,19.67
2018-12-29T02:43:57.622Z,18.97
2018-12-29T02:46:29.522Z,18.57
2018-12-29T02:49:01.443Z,19.20
2018-12-29T02:51:33.307Z,18.73
2018-12-29T02:54:05.142Z,19.47
2018-12-29T02:56:36.949Z,16.33
2018-12-29T02:59:08.835Z,19.20
2018-12-29T03:01:40.704Z,18.93
2018-12-29T03:04:14.040Z,18.93
2018-12-29T03:06:45.923Z,18.37
2018-12-29T03:09:17.832Z,18.17
2018-12-29T03:11:49.732Z,19.27
2018-12-29T03:14:21.604Z,19.60
2018-12-29T03:16:53.488Z,19.63
2018-12-29T03:19:25.406Z,21.47
2018-12-29T03:21:57.299Z,18.40
2018-12-29T03:24:29.255Z,20.33
2018-12-29T03:27:01.140Z,19.00
2018-12-29T03:29:33.023Z,18.40
2018-12-29T03:32:04.827Z,21.00
2018-12-29T03:34:36.728Z,18.63
2018-12-29T03:37:11.369Z,20.07
2018-12-29T03:39:43.173Z,19.87
2018-12-29T03:42:15.057Z,20.97
2018-12-29T03:44:46.811Z,21.10
2018-12-29T03:47:18.590Z,21.73
2018-12-29T03:49:50.412Z,20.87
2018-12-29T03:52:22.278Z,21.77
2018-12-29T03:54:54.920Z,20.30
2018-12-29T03:57:26.728Z,21.47
2018-12-29T03:59:58.645Z,20.13
2018-12-29T04:02:30.542Z,20.50
2018-12-29T04:05:02.473Z,21.00
2018-12-29T04:07:34.351Z,21.40
2018-12-29T04:10:09.956Z,20.83
2018-12-29T04:12:44.510Z,20.33
2018-12-29T04:15:16.426Z,21.50
2018-12-29T04:17:48.275Z,20.97
2018-12-29T04:20:20.169Z,20.87
2018-12-29T04:22:51.959Z,21.03
2018-12-29T04:25:25.786Z,22.20
2018-12-29T04:27:57.619Z,21.80
2018-12-29T04:30:29.645Z,21.43
2018-12-29T04:33:01.520Z,21.47
2018-12-29T04:35:33.402Z,21.30
2018-12-29T04:38:05.338Z,20.93
2018-12-29T04:40:37.251Z,22.67
2018-12-29T04:43:09.008Z,22.70
2018-12-29T04:45:42.491Z,21.73
2018-12-29T04:48:23.266Z,22.70
2018-12-29T04:50:55.190Z,21.93
2018-12-29T04:53:27.052Z,22.27
2018-12-29T04:55:58.930Z,22.37
2018-12-29T04:58:30.808Z,23.73
2018-12-29T05:01:02.644Z,23.10
2018-12-29T05:03:34.459Z,22.03
2018-12-29T05:06:06.359Z,23.37
2018-12-29T05:08:38.245Z,23.43
2018-12-29T05:11:10.147Z,23.33
2018-12-29T05:13:42.049Z,23.33
2018-12-29T05:16:13.946Z,23.20
2018-12-29T05:18:45.774Z,24.63
2018-12-29T05:21:18.754Z,22.43
2018-12-29T05:23:50.746Z,23.23
2018-12-29T05:26:23.205Z,22.10
2018-12-29T05:28:54.610Z,22.97
2018-12-29T05:31:26.610Z,22.07
2018-12-29T05:33:58.486Z,22.93
2018-12-29T05:36:29.882Z,23.73
2018-12-29T05:39:01.669Z,21.57
2018-12-29T05:41:33.785Z,23.67
2018-12-29T05:44:05.645Z,23.83
2018-12-29T05:46:39.081Z,23.17
2018-12-29T05:49:10.486Z,23.40
2018-12-29T05:51:42.215Z,23.20
2018-12-29T05:54:14.132Z,23.27
2018-12-29T05:56:46.868Z,24.20
2018-12-29T05:59:18.762Z,23.23
2018-12-29T06:01:50.633Z,24.87
2018-12-29T06:04:22.503Z,23.10
2018-12-29T06:06:54.392Z,25.60
2018-12-29T06:09:25.882Z,24.07
2018-12-29T06:11:57.624Z,23.33
2018-12-29T06:14:29.478Z,23.13
2018-12-29T06:17:01.322Z,22.93
2018-12-29T06:19:44.198Z,22.93
2018-12-29T06:22:17.446Z,23.70
2018-12-29T06:24:49.553Z,23.80
2018-12-29T06:27:24.653Z,22.47
2018-12-29T06:29:56.776Z,22.97
2018-12-29T06:32:28.784Z,21.90
2018-12-29T06:35:00.689Z,23.63
2018-12-29T06:37:32.587Z,22.87
2018-12-29T06:40:04.513Z,23.17
2018-12-29T06:42:36.389Z,23.57
2018-12-29T06:45:12.061Z,22.73
2018-12-29T06:47:44.563Z,23.27
2018-12-29T06:50:16.445Z,24.23
2018-12-29T06:52:49.155Z,22.73
2018-12-29T06:55:20.950Z,24.43
2018-12-29T06:57:53.500Z,22.73
2018-12-29T07:00:25.544Z,23.83
2018-12-29T07:02:57.763Z,25.37
2018-12-29T07:05:30.238Z,24.00
2018-12-29T07:08:02.251Z,25.60
2018-12-29T07:10:34.524Z,24.10
2018-12-29T07:13:07.662Z,26.43
2018-12-29T07:15:39.998Z,24.37
2018-12-29T07:18:13.649Z,25.20
2018-12-29T07:20:45.494Z,24.43
2018-12-29T07:23:17.408Z,24.83
2018-12-29T07:25:50.522Z,24.97
2018-12-29T07:28:22.443Z,24.20
2018-12-29T07:30:56.099Z,24.57
2018-12-29T07:33:27.920Z,24.50
2018-12-29T07:36:00.860Z,24.50
2018-12-29T07:38:32.630Z,24.17
2018-12-29T07:41:04.511Z,24.27
2018-12-29T07:43:36.415Z,25.03
2018-12-29T07:46:08.434Z,25.40
2018-12-29T07:48:40.326Z,23.63
2018-12-29T07:51:14.072Z,26.17
2018-12-29T07:53:48.374Z,24.90
2018-12-29T07:56:21.369Z,25.47
2018-12-29T07:58:53.244Z,25.90
2018-12-29T08:01:25.107Z,24.57
2018-12-29T08:03:57.993Z,24.60
2018-12-29T08:06:29.803Z,26.63
2018-12-29T08:09:01.728Z,25.67
2018-12-29T08:11:34.002Z,25.40
2018-12-29T08:14:05.936Z,24.97
2018-12-29T08:16:38.793Z,25.17
2018-12-29T08:19:10.661Z,24.83
2018-12-29T08:21:42.582Z,24.53
2018-12-29T08:24:14.478Z,25.37
2018-12-29T08:26:46.399Z,25.00
2018-12-29T08:29:18.231Z,24.93
2018-12-29T08:31:50.138Z,24.20
2018-12-29T08:34:21.977Z,24.63
2018-12-29T08:36:53.985Z,24.57
2018-12-29T08:39:27.213Z,25.47
2018-12-29T08:41:59.055Z,24.80
2018-12-29T08:44:32.108Z,26.47
2018-12-29T08:47:04.606Z,24.63
2018-12-29T08:49:36.709Z,24.70
2018-12-29T08:52:08.501Z,25.17
2018-12-29T08:54:40.362Z,23.80
2018-12-29T08:57:12.245Z,26.07
2018-12-29T08:59:45.195Z,25.50
2018-12-29T09:02:18.258Z,25.03
2018-12-29T09:04:50.276Z,24.80
2018-12-29T09:07:22.175Z,24.77
2018-12-29T09:09:53.686Z,25.43
2018-12-29T09:12:25.610Z,24.93
2018-12-29T09:14:58.249Z,24.70
2018-12-29T09:17:30.023Z,24.97
2018-12-29T09:20:01.901Z,24.73
2018-12-29T09:22:33.784Z,25.77
2018-12-29T09:25:07.250Z,26.03
2018-12-29T09:27:39.046Z,24.43
2018-12-29T09:30:11.006Z,24.40
2018-12-29T09:32:42.926Z,23.33
2018-12-29T09:35:15.627Z,24.27
2018-12-29T09:37:47.512Z,24.00
2018-12-29T09:40:20.563Z,24.90
2018-12-29T09:42:52.071Z,23.50
2018-12-29T09:45:23.906Z,24.57
2018-12-29T09:47:55.403Z,24.77
2018-12-29T09:50:26.938Z,23.67
2018-12-29T09:52:58.405Z,22.30
2018-12-29T09:55:30.143Z,23.63
2018-12-29T09:58:02.007Z,23.13
2018-12-29T10:00:34.913Z,24.13
2018-12-29T10:03:06.712Z,21.23
2018-12-29T10:05:38.625Z,23.93
2018-12-29T10:08:10.600Z,24.23
2018-12-29T10:10:42.522Z,26.90
2018-12-29T10:13:14.391Z,24.90
2018-12-29T10:15:46.246Z,25.50
2018-12-29T10:18:19.676Z,25.20
2018-12-29T10:20:51.567Z,26.87
2018-12-29T10:23:23.466Z,25.40
2018-12-29T10:25:55.285Z,25.63
2018-12-29T10:28:27.099Z,26.77
2018-12-29T10:30:58.986Z,25.77
2018-12-29T10:33:30.788Z,25.00
2018-12-29T10:36:02.712Z,24.80
2018-12-29T10:38:34.640Z,27.07
2018-12-29T10:41:06.459Z,26.13
2018-12-29T10:43:38.399Z,24.93
2018-12-29T10:46:11.487Z,25.10
2018-12-29T10:48:43.307Z,26.67
2018-12-29T10:51:15.101Z,27.20
2018-12-29T10:53:47.006Z,25.57
2018-12-29T10:56:18.903Z,25.40
2018-12-29T10:58:50.688Z,24.70
2018-12-29T11:01:22.479Z,26.03
2018-12-29T11:03:54.347Z,25.47
2018-12-29T11:06:26.199Z,23.87
2018-12-29T11:08:58.275Z,24.73
2018-12-29T11:11:30.143Z,23.40
2018-12-29T11:14:02.029Z,25.80
2018-12-29T11:16:34.373Z,23.10
2018-12-29T11:19:06.273Z,23.77
2018-12-29T11:21:38.102Z,23.93
2018-12-29T11:24:10.025Z,23.63
2018-12-29T11:26:41.925Z,24.47
2018-12-29T11:29:13.757Z,23.00
2018-12-29T11:31:45.549Z,23.17
2018-12-29T11:34:17.396Z,22.47
2018-12-29T11:36:49.262Z,23.70
2018-12-29T11:39:21.126Z,22.53
2018-12-29T11:41:53.165Z,22.67
2018-12-29T11:44:25.007Z,21.77
2018-12-29T11:46:56.897Z,21.57
2018-12-29T11:49:28.754Z,21.90
2018-12-29T11:52:00.556Z,20.70
2018-12-29T11:54:33.337Z,21.30
2018-12-29T11:57:05.226Z,21.57
2018-12-29T11:59:37.060Z,21.83
2018-12-29T12:02:08.891Z,20.30
2018-12-29T12:04:40.751Z,21.57
2018-12-29T12:07:12.591Z,18.90
2018-12-29T12:09:44.377Z,21.27
2018-12-29T12:12:16.203Z,28.87
2018-12-29T12:14:48.055Z,22.53
2018-12-29T12:17:19.925Z,21.50
2018-12-29T12:19:51.795Z,21.67
2018-12-29T12:22:23.586Z,20.73
2018-12-29T12:24:55.403Z,21.20
2018-12-29T12:27:27.318Z,20.23
2018-12-29T12:29:59.560Z,21.17
2018-12-29T12:32:31.335Z,21.43
2018-12-29T12:35:03.514Z,20.13
2018-12-29T12:37:35.318Z,20.07
2018-12-29T12:40:07.311Z,18.13
2018-12-29T12:42:39.166Z,18.97
2018-12-29T12:45:11.030Z,20.30
2018-12-29T12:47:42.879Z,18.63
2018-12-29T12:50:14.722Z,18.67
2018-12-29T12:52:47.521Z,18.73
2018-12-29T12:55:19.323Z,17.83
2018-12-29T12:57:52.483Z,19.10
2018-12-29T13:00:24.631Z,18.70
2018-12-29T13:02:56.787Z,19.40
2018-12-29T13:05:29.646Z,18.63
2018-12-29T13:08:01.511Z,19.13
2018-12-29T13:10:33.337Z,19.20
2018-12-29T13:13:05.191Z,18.47
2018-12-29T13:15:37.080Z,19.27
2018-12-29T13:18:19.044Z,19.07
2018-12-29T13:20:44.027Z,19.30
2018-12-29T13:23:15.931Z,19.00
2018-12-29T13:25:47.771Z,20.20
2018-12-29T13:28:19.697Z,18.47
2018-12-29T13:30:51.543Z,20.30
2018-12-29T13:33:23.304Z,20.67
2018-12-29T13:35:55.176Z,19.50
2018-12-29T13:38:27.038Z,20.30
2018-12-29T13:40:58.821Z,19.27
2018-12-29T13:43:30.714Z,20.33
2018-12-29T13:46:02.575Z,18.57
2018-12-29T13:48:35.678Z,20.23
2018-12-29T13:51:07.558Z,19.60
2018-12-29T13:53:39.376Z,19.40
2018-12-29T13:56:11.570Z,20.30
2018-12-29T13:58:43.775Z,18.47
2018-12-29T14:01:15.687Z,18.67
2018-12-29T14:03:48.509Z,18.80
2018-12-29T14:06:20.336Z,19.90
2018-12-29T14:08:52.484Z,19.97
2018-12-29T14:11:24.337Z,18.90
2018-12-29T14:13:57.497Z,18.67
2018-12-29T14:16:29.352Z,18.27
2018-12-29T14:19:01.193Z,18.97
2018-12-29T14:21:33.987Z,18.00
2018-12-29T14:24:05.815Z,19.33
2018-12-29T14:26:37.652Z,19.10
2018-12-29T14:29:09.538Z,17.97
2018-12-29T14:31:41.445Z,18.43
2018-12-29T14:34:13.278Z,18.23
2018-12-29T14:36:45.174Z,18.73
2018-12-29T14:39:18.050Z,18.00
2018-12-29T14:41:50.604Z,17.97
2018-12-29T14:44:22.466Z,17.50
2018-12-29T14:46:54.316Z,18.00
2018-12-29T14:49:26.178Z,17.03
2018-12-29T14:51:57.925Z,17.70
2018-12-29T14:54:29.795Z,18.00
2018-12-29T14:57:01.589Z,18.10
2018-12-29T14:59:33.473Z,18.63
2018-12-29T15:02:05.267Z,17.63
2018-12-29T15:04:37.407Z,18.03
2018-12-29T15:07:09.359Z,17.40
2018-12-29T15:09:42.496Z,18.43
2018-12-29T15:12:14.879Z,18.10
2018-12-29T15:14:46.812Z,17.43
2018-12-29T15:17:18.647Z,18.17
2018-12-29T15:19:50.447Z,17.17
2018-12-29T15:22:22.301Z,18.00
2018-12-29T15:24:55.722Z,16.90
2018-12-29T15:27:27.744Z,19.10
2018-12-29T15:29:59.554Z,17.90
2018-12-29T15:32:32.712Z,19.73
2018-12-29T15:35:04.711Z,17.80
2018-12-29T15:37:36.613Z,17.73
2018-12-29T15:40:08.471Z,17.50
2018-12-29T15:42:44.997Z,15.80
2018-12-29T15:45:14.414Z,16.37
2018-12-29T15:47:46.296Z,17.73
2018-12-29T15:50:18.242Z,17.90
2018-12-29T15:52:51.823Z,17.90
2018-12-29T15:55:23.682Z,17.50
2018-12-29T15:57:55.582Z,17.97
2018-12-29T16:00:27.431Z,17.50
2018-12-29T16:02:59.272Z,19.13
2018-12-29T16:05:31.188Z,17.23
2018-12-29T16:08:03.115Z,17.53
2018-12-29T16:10:34.933Z,18.17
2018-12-29T16:13:06.822Z,19.07
2018-12-29T16:15:38.730Z,19.40
2018-12-29T16:18:12.886Z,19.13
2018-12-29T16:20:44.745Z,18.70
2018-12-29T16:23:16.625Z,19.27
2018-12-29T16:25:48.610Z,18.80
2018-12-29T16:28:20.505Z,18.37
2018-12-29T16:30:52.324Z,18.23
2018-12-29T16:33:24.214Z,18.07
2018-12-29T16:35:56.381Z,18.63
2018-12-29T16:38:28.237Z,19.20
2018-12-29T16:41:00.536Z,17.47
2018-12-29T16:43:32.418Z,18.80
2018-12-29T16:46:04.279Z,17.20
2018-12-29T16:48:36.129Z,18.13
2018-12-29T16:51:08.017Z,39.27
2018-12-29T16:53:39.804Z,18.27
2018-12-29T16:56:11.643Z,17.90
2018-12-29T16:58:43.603Z,18.23
2018-12-29T17:01:15.476Z,18.40
2018-12-29T17:03:48.764Z,18.17
2018-12-29T17:06:20.605Z,17.93
2018-12-29T17:08:52.478Z,16.73
2018-12-29T17:11:23.995Z,18.10
2018-12-29T17:13:55.847Z,17.30
2018-12-29T17:16:27.749Z,16.10
2018-12-29T17:18:59.636Z,18.43
2018-12-29T17:21:31.506Z,17.47
2018-12-29T17:24:03.446Z,18.67
2018-12-29T17:26:35.287Z,18.00
2018-12-29T17:29:07.189Z,17.53
2018-12-29T17:31:39.086Z,17.53
2018-12-29T17:34:11.449Z,17.70
2018-12-29T17:36:43.247Z,18.23
2018-12-29T17:39:16.043Z,18.00
2018-12-29T17:41:47.903Z,18.30
2018-12-29T17:44:19.848Z,18.20
2018-12-29T17:46:51.755Z,16.90
2018-12-29T17:49:24.875Z,17.13
2018-12-29T17:51:59.953Z,17.00
2018-12-29T17:54:31.834Z,17.47
2018-12-29T17:57:03.790Z,18.43
2018-12-29T17:59:35.603Z,18.30
2018-12-29T18:02:07.486Z,16.87
2018-12-29T18:04:39.607Z,18.17
2018-12-29T18:07:11.493Z,17.67
2018-12-29T18:09:44.650Z,17.77
2018-12-29T18:12:16.588Z,17.50
2018-12-29T18:14:48.758Z,17.17
2018-12-29T18:17:20.616Z,17.73
2018-12-29T18:19:52.436Z,17.80
2018-12-29T18:22:24.255Z,17.40
2018-12-29T18:24:56.456Z,17.80
2018-12-29T18:27:28.420Z,17.43
2018-12-29T18:30:01.598Z,18.13
2018-12-29T18:32:34.376Z,18.80
2018-12-29T18:35:06.204Z,17.80
2018-12-29T18:37:38.103Z,16.30
2018-12-29T18:40:10.356Z,16.40
2018-12-29T18:42:42.244Z,17.47
2018-12-29T18:45:14.078Z,15.57
2018-12-29T18:47:45.948Z,17.37
2018-12-29T18:50:17.936Z,16.67
2018-12-29T18:52:49.853Z,15.53
2018-12-29T18:55:21.685Z,16.50
2018-12-29T18:57:53.807Z,15.90
2018-12-29T19:00:25.662Z,17.13
2018-12-29T19:02:57.507Z,16.83
2018-12-29T19:05:30.564Z,17.50
2018-12-29T19:08:02.367Z,16.27
2018-12-29T19:10:34.366Z,17.70
2018-12-29T19:13:06.520Z,17.40
2018-12-29T19:15:38.719Z,16.97
2018-12-29T19:18:10.634Z,16.40
2018-12-29T19:20:42.406Z,15.10
2018-12-29T19:23:14.782Z,17.83
2018-12-29T19:25:46.601Z,16.67
2018-12-29T19:28:18.725Z,17.27
2018-12-29T19:30:51.113Z,15.77
2018-12-29T19:33:24.320Z,16.23
2018-12-29T19:35:56.514Z,16.10
2018-12-29T19:38:29.722Z,17.07
2018-12-29T19:41:01.588Z,16.43
2018-12-29T19:43:33.795Z,15.67
2018-12-29T19:46:06.035Z,15.03
2018-12-29T19:48:37.979Z,17.40
2018-12-29T19:51:09.867Z,16.07
2018-12-29T19:53:43.268Z,16.33
2018-12-29T19:56:15.036Z,16.83
2018-12-29T19:58:46.826Z,15.20
2018-12-29T20:01:18.759Z,16.17
2018-12-29T20:03:51.951Z,15.83
2018-12-29T20:06:23.867Z,16.33
2018-12-29T20:08:55.677Z,16.73
2018-12-29T20:11:27.551Z,17.10
2018-12-29T20:14:00.781Z,16.13
2018-12-29T20:16:32.859Z,15.67
2018-12-29T20:19:04.726Z,15.90
2018-12-29T20:21:36.512Z,16.23
2018-12-29T20:24:08.379Z,14.53
2018-12-29T20:26:40.538Z,15.10
2018-12-29T20:29:12.346Z,15.13
2018-12-29T20:31:45.166Z,14.33
2018-12-29T20:34:17.058Z,13.63
2018-12-29T20:36:49.322Z,14.00
2018-12-29T20:39:21.239Z,12.80
2018-12-29T20:41:53.076Z,12.60
2018-12-29T20:44:24.914Z,12.80
2018-12-29T20:46:58.117Z,12.80
2018-12-29T20:49:29.958Z,13.33
2018-12-29T20:52:01.854Z,13.20
2018-12-29T20:54:33.690Z,13.07
2018-12-29T20:57:05.533Z,14.50
2018-12-29T20:59:37.402Z,13.67
2018-12-29T21:02:09.239Z,12.97
2018-12-29T21:04:41.136Z,13.67
2018-12-29T21:07:13.067Z,13.07
2018-12-29T21:09:45.131Z,13.43
2018-12-29T21:12:17.031Z,13.67
2018-12-29T21:14:48.871Z,13.57
2018-12-29T21:17:20.794Z,12.47
2018-12-29T21:19:52.710Z,12.63
2018-12-29T21:22:24.594Z,12.77
2018-12-29T21:24:56.503Z,12.83
2018-12-29T21:27:28.388Z,12.87
2018-12-29T21:30:00.245Z,12.83
2018-12-29T21:32:32.419Z,13.17
2018-12-29T21:35:04.256Z,11.73
2018-12-29T21:37:36.142Z,12.50
2018-12-29T21:40:08.067Z,12.10
2018-12-29T21:42:39.860Z,11.20
2018-12-29T21:45:11.711Z,11.23
2018-12-29T21:47:44.498Z,10.90
2018-12-29T21:50:16.316Z,11.07
2018-12-29T21:52:48.171Z,11.77
2018-12-29T21:55:20.069Z,11.57
2018-12-29T21:57:51.954Z,11.33
2018-12-29T22:00:23.812Z,11.27
2018-12-29T22:02:55.579Z,10.83
2018-12-29T22:05:27.638Z,10.93
2018-12-29T22:07:59.562Z,10.53
2018-12-29T22:10:31.441Z,11.20
2018-12-29T22:13:03.243Z,11.00
2018-12-29T22:15:36.419Z,11.13
2018-12-29T22:18:08.146Z,11.00
2018-12-29T22:20:40.063Z,11.20
2018-12-29T22:23:12.025Z,11.00
2018-12-29T22:25:48.178Z,10.93
2018-12-29T22:28:17.198Z,10.70
2018-12-29T22:30:49.088Z,11.73
2018-12-29T22:33:20.929Z,10.43
2018-12-29T22:35:52.732Z,10.53
2018-12-29T22:38:24.752Z,11.13
2018-12-29T22:40:56.640Z,10.47
2018-12-29T22:43:29.780Z,10.03
2018-12-29T22:46:01.689Z,10.20
2018-12-29T22:48:33.874Z,9.90
2018-12-29T22:51:05.733Z,10.40
2018-12-29T22:53:37.656Z,10.97
2018-12-29T22:56:09.514Z,9.40
2018-12-29T22:58:41.446Z,10.20
2018-12-29T23:01:14.641Z,10.60
2018-12-29T23:03:46.523Z,10.00
2018-12-29T23:06:18.394Z,9.20
2018-12-29T23:08:50.256Z,9.03
2018-12-29T23:11:21.763Z,9.53
2018-12-29T23:13:53.485Z,9.70
2018-12-29T23:16:25.399Z,10.03
2018-12-29T23:18:57.723Z,10.97
2018-12-29T23:21:29.559Z,9.73
2018-12-29T23:24:01.380Z,10.10
2018-12-29T23:26:33.326Z,10.57
2018-12-29T23:29:05.300Z,10.53
2018-12-29T23:31:37.381Z,10.17
2018-12-29T23:34:09.251Z,10.77
2018-12-29T23:36:41.163Z,10.67
2018-12-29T23:39:13.039Z,10.27
2018-12-29T23:41:45.141Z,10.77
2018-12-29T23:44:17.049Z,9.60
2018-12-29T23:46:48.907Z,10.23
2018-12-29T23:49:20.810Z,10.90
2018-12-29T23:51:52.730Z,11.17
2018-12-29T23:54:24.649Z,11.90
2018-12-29T23:56:56.763Z,11.63
2018-12-29T23:59:28.663Z,12.43
